Time;durP1;ratioP1;P1;durP2;ratioP2;P2;SDS_P1;SDS_P2;PMS_P1;PMS_P2;Temp;Humidity;BMP_temperature;BMP_pressure;BME280_temperature;BME280_humidity;BME280_pressure;Samples;Min_cycle;Max_cycle;Signal;HPM_P1;HPM_P2
2021/07/10 00:02:18;;;;;;;19.95;6.40;;;;;;;;;;6275032;22;20010;-77
2021/07/10 00:04:45;;;;;;;15.60;8.00;;;;;;;;;;6275246;22;20354;-77
2021/07/10 00:07:12;;;;;;;12.10;6.20;;;;;;;;;;6275459;22;20019;-76
2021/07/10 00:09:38;;;;;;;11.63;5.53;;;;;;;;;;6275644;22;20000;-76
2021/07/10 00:12:04;;;;;;;10.57;5.38;;;;;;;;;;6275390;22;19999;-76
2021/07/10 00:14:30;;;;;;;12.38;5.63;;;;;;;;;;6275169;22;20046;-76
2021/07/10 00:16:56;;;;;;;16.77;6.65;;;;;;;;;;6275682;22;20305;-76
2021/07/10 00:19:23;;;;;;;14.90;5.82;;;;;;;;;;6275161;22;20007;-77
2021/07/10 00:21:49;;;;;;;15.20;5.45;;;;;;;;;;6275463;22;20001;-76
2021/07/10 00:24:15;;;;;;;9.27;5.03;;;;;;;;;;6275327;22;20462;-77
2021/07/10 00:26:41;;;;;;;10.80;4.97;;;;;;;;;;6275118;22;20074;-76
2021/07/10 00:29:08;;;;;;;13.32;5.40;;;;;;;;;;6275515;22;20000;-76
2021/07/10 00:31:34;;;;;;;10.40;5.63;;;;;;;;;;6275001;22;20328;-76
2021/07/10 00:34:00;;;;;;;7.00;4.53;;;;;;;;;;6275289;22;20121;-76
2021/07/10 00:36:26;;;;;;;9.13;4.72;;;;;;;;;;6275089;22;20023;-77
2021/07/10 00:38:53;;;;;;;7.55;5.20;;;;;;;;;;6275380;22;20039;-76
2021/07/10 00:41:19;;;;;;;7.28;4.30;;;;;;;;;;6275423;22;20012;-76
2021/07/10 00:43:52;;;;;;;6.07;4.93;;;;;;;;;;6275360;22;20080;-76
2021/07/10 00:46:19;;;;;;;8.32;5.35;;;;;;;;;;6275240;22;20391;-76
2021/07/10 00:48:45;;;;;;;5.95;5.40;;;;;;;;;;6275496;22;20416;-76
2021/07/10 00:51:12;;;;;;;5.93;5.18;;;;;;;;;;6275428;22;20000;-76
2021/07/10 00:53:38;;;;;;;6.55;5.95;;;;;;;;;;6274903;22;20004;-75
2021/07/10 00:56:04;;;;;;;6.05;5.32;;;;;;;;;;6275330;22;20046;-76
2021/07/10 00:58:30;;;;;;;5.72;5.18;;;;;;;;;;6274931;22;20003;-76
2021/07/10 01:00:56;;;;;;;6.40;5.32;;;;;;;;;;6275378;22;20331;-76
2021/07/10 01:03:23;;;;;;;7.30;5.78;;;;;;;;;;6275097;22;20004;-77
2021/07/10 01:05:49;;;;;;;5.93;5.15;;;;;;;;;;6248154;22;20069;-76
2021/07/10 01:08:15;;;;;;;6.95;5.15;;;;;;;;;;6275248;22;20007;-77
2021/07/10 01:10:41;;;;;;;6.13;4.93;;;;;;;;;;6274879;22;20007;-77
2021/07/10 01:13:07;;;;;;;5.50;5.00;;;;;;;;;;6275136;22;20007;-76
2021/07/10 01:15:33;;;;;;;7.65;5.82;;;;;;;;;;6274835;22;20014;-76
2021/07/10 01:17:59;;;;;;;5.68;5.07;;;;;;;;;;6275229;22;20018;-76
2021/07/10 01:20:29;;;;;;;7.15;5.05;;;;;;;;;;6247960;22;20420;-77
2021/07/10 01:22:58;;;;;;;5.70;5.20;;;;;;;;;;6275491;22;20423;-76
2021/07/10 01:25:25;;;;;;;6.88;5.43;;;;;;;;;;6275073;22;20004;-76
2021/07/10 01:27:52;;;;;;;5.45;4.95;;;;;;;;;;6275178;22;20332;-77
2021/07/10 01:30:20;;;;;;;5.53;4.68;;;;;;;;;;6275196;22;20004;-76
2021/07/10 01:32:47;;;;;;;6.55;5.93;;;;;;;;;;6275858;22;20391;-76
2021/07/10 01:35:14;;;;;;;6.90;5.15;;;;;;;;;;6277058;22;20004;-77
2021/07/10 01:37:44;;;;;;;5.25;4.75;;;;;;;;;;6276501;22;20459;-76
2021/07/10 01:40:11;;;;;;;6.15;5.63;;;;;;;;;;6277057;22;20000;-76
2021/07/10 01:42:37;;;;;;;5.72;5.13;;;;;;;;;;6276576;22;20007;-76
2021/07/10 01:45:03;;;;;;;5.70;4.97;;;;;;;;;;6277011;22;20331;-76
2021/07/10 01:47:29;;;;;;;5.93;5.15;;;;;;;;;;6249286;22;20375;-77
2021/07/10 01:49:56;;;;;;;9.68;5.88;;;;;;;;;;6276906;22;20023;-76
2021/07/10 01:52:22;;;;;;;6.10;5.53;;;;;;;;;;6276682;22;20007;-75
2021/07/10 01:54:48;;;;;;;6.88;5.38;;;;;;;;;;6276737;22;20007;-76
2021/07/10 01:57:14;;;;;;;5.70;5.13;;;;;;;;;;6276920;22;20451;-76
2021/07/10 01:59:41;;;;;;;4.93;4.47;;;;;;;;;;6276392;22;20011;-76
2021/07/10 02:02:07;;;;;;;6.15;5.32;;;;;;;;;;6276982;22;20004;-76
2021/07/10 02:04:43;;;;;;;7.03;5.38;;;;;;;;;;6276406;22;20134;-76
2021/07/10 02:07:09;;;;;;;7.60;5.70;;;;;;;;;;6276671;22;20030;-76
2021/07/10 02:09:35;;;;;;;7.10;4.97;;;;;;;;;;6276281;22;20002;-76
2021/07/10 02:12:01;;;;;;;7.22;4.80;;;;;;;;;;6276633;22;20057;-76
2021/07/10 02:14:27;;;;;;;5.72;5.13;;;;;;;;;;6276178;22;20004;-76
2021/07/10 02:16:54;;;;;;;5.90;4.57;;;;;;;;;;6276709;22;20004;-76
2021/07/10 02:19:20;;;;;;;5.35;4.78;;;;;;;;;;6276675;22;19995;-77
2021/07/10 02:21:46;;;;;;;5.20;4.68;;;;;;;;;;6276338;22;19996;-76
2021/07/10 02:24:12;;;;;;;5.07;4.57;;;;;;;;;;6276583;22;20027;-76
2021/07/10 02:26:38;;;;;;;5.50;4.72;;;;;;;;;;6276134;22;20000;-76
2021/07/10 02:29:05;;;;;;;5.63;4.95;;;;;;;;;;6276324;22;20049;-76
2021/07/10 02:31:31;;;;;;;12.00;5.13;;;;;;;;;;6275978;22;20050;-77
2021/07/10 02:33:57;;;;;;;8.18;4.30;;;;;;;;;;6276992;22;20011;-76
2021/07/10 02:36:23;;;;;;;8.55;5.05;;;;;;;;;;6276526;22;20407;-76
2021/07/10 02:38:50;;;;;;;8.85;5.05;;;;;;;;;;6275915;22;20042;-77
2021/07/10 02:41:16;;;;;;;8.65;4.93;;;;;;;;;;6276425;22;20431;-75
2021/07/10 02:43:42;;;;;;;7.60;5.30;;;;;;;;;;6248561;22;20378;-77
2021/07/10 02:46:08;;;;;;;7.38;4.70;;;;;;;;;;6276326;22;20059;-77
2021/07/10 02:48:34;;;;;;;7.43;5.25;;;;;;;;;;6248937;22;20057;-77
2021/07/10 02:51:01;;;;;;;5.28;4.78;;;;;;;;;;6276193;22;20054;-77
2021/07/10 02:53:27;;;;;;;6.07;4.60;;;;;;;;;;6276136;22;20010;-76
2021/07/10 02:55:53;;;;;;;6.03;4.78;;;;;;;;;;6275806;22;19995;-76
2021/07/10 02:58:19;;;;;;;6.38;4.90;;;;;;;;;;6276327;22;20007;-76
2021/07/10 03:00:45;;;;;;;11.85;5.72;;;;;;;;;;6276254;22;20098;-76
2021/07/10 03:03:11;;;;;;;9.60;6.03;;;;;;;;;;6276105;22;20010;-77
2021/07/10 03:05:38;;;;;;;6.25;5.25;;;;;;;;;;6275967;22;19999;-76
2021/07/10 03:08:05;;;;;;;7.10;5.78;;;;;;;;;;6275802;22;20388;-76
2021/07/10 03:10:32;;;;;;;7.03;5.47;;;;;;;;;;6276001;22;20439;-76
2021/07/10 03:12:59;;;;;;;7.15;5.70;;;;;;;;;;6275749;22;20049;-77
2021/07/10 03:15:28;;;;;;;7.47;5.80;;;;;;;;;;6275941;22;20008;-76
2021/07/10 03:17:54;;;;;;;8.35;5.68;;;;;;;;;;6275637;22;20046;-76
2021/07/10 03:20:22;;;;;;;5.90;5.03;;;;;;;;;;6276132;22;20496;-76
2021/07/10 03:22:48;;;;;;;7.85;5.80;;;;;;;;;;6275933;22;20054;-76
2021/07/10 03:25:15;;;;;;;6.50;5.35;;;;;;;;;;6275742;22;20004;-76
2021/07/10 03:27:44;;;;;;;6.85;5.82;;;;;;;;;;6275694;22;20000;-76
2021/07/10 03:30:12;;;;;;;8.50;5.65;;;;;;;;;;6275802;22;20017;-76
2021/07/10 03:32:39;;;;;;;6.43;5.30;;;;;;;;;;6275425;22;20377;-76
2021/07/10 03:35:06;;;;;;;7.47;6.05;;;;;;;;;;6275710;22;20000;-77
2021/07/10 03:37:32;;;;;;;7.38;6.10;;;;;;;;;;6248251;22;20099;-77
2021/07/10 03:39:58;;;;;;;8.02;5.72;;;;;;;;;;6275486;22;20000;-76
2021/07/10 03:42:24;;;;;;;5.82;5.18;;;;;;;;;;6275883;22;19999;-76
2021/07/10 03:44:51;;;;;;;8.48;5.78;;;;;;;;;;6275246;22;20004;-76
2021/07/10 03:47:17;;;;;;;5.60;5.05;;;;;;;;;;6275831;22;20438;-76
2021/07/10 03:49:43;;;;;;;7.32;5.30;;;;;;;;;;6248254;22;20007;-76
2021/07/10 03:52:09;;;;;;;6.85;5.22;;;;;;;;;;6275571;22;20007;-75
2021/07/10 03:54:35;;;;;;;6.57;5.78;;;;;;;;;;6275495;22;20376;-77
2021/07/10 03:57:01;;;;;;;6.72;5.40;;;;;;;;;;6275181;22;20070;-76
2021/07/10 03:59:27;;;;;;;6.60;5.80;;;;;;;;;;6275623;22;20007;-76
2021/07/10 04:01:54;;;;;;;7.05;6.15;;;;;;;;;;6275291;22;20000;-76
2021/07/10 04:04:20;;;;;;;5.60;5.10;;;;;;;;;;6275560;22;20035;-76
2021/07/10 04:06:46;;;;;;;6.70;6.10;;;;;;;;;;6275305;22;19996;-76
2021/07/10 04:09:12;;;;;;;6.15;5.53;;;;;;;;;;6275375;22;20000;-76
2021/07/10 04:11:38;;;;;;;6.78;6.00;;;;;;;;;;6275325;22;20066;-76
2021/07/10 04:14:04;;;;;;;7.13;6.38;;;;;;;;;;6248129;22;20000;-76
2021/07/10 04:16:31;;;;;;;8.52;6.22;;;;;;;;;;6275520;22;20053;-77
2021/07/10 04:18:57;;;;;;;6.88;6.18;;;;;;;;;;6275546;22;20062;-77
2021/07/10 04:21:23;;;;;;;7.03;5.90;;;;;;;;;;6275506;22;20006;-75
2021/07/10 04:23:49;;;;;;;5.80;5.07;;;;;;;;;;6275974;22;20008;-76
2021/07/10 04:26:15;;;;;;;6.70;5.75;;;;;;;;;;6275254;22;20057;-76
2021/07/10 04:28:41;;;;;;;6.60;6.00;;;;;;;;;;6275511;22;20031;-76
2021/07/10 04:31:07;;;;;;;8.82;5.68;;;;;;;;;;6275193;22;20102;-77
2021/07/10 04:33:33;;;;;;;11.32;5.78;;;;;;;;;;6275344;22;20002;-76
2021/07/10 04:35:59;;;;;;;9.18;5.18;;;;;;;;;;6275208;22;20015;-76
2021/07/10 04:38:25;;;;;;;6.25;5.07;;;;;;;;;;6275601;22;20023;-76
2021/07/10 04:40:52;;;;;;;6.10;5.47;;;;;;;;;;6275258;22;20004;-77
2021/07/10 04:43:18;;;;;;;8.20;5.88;;;;;;;;;;6248025;22;20331;-76
2021/07/10 04:45:44;;;;;;;6.22;5.20;;;;;;;;;;6275425;22;20000;-76
2021/07/10 04:48:10;;;;;;;6.82;6.07;;;;;;;;;;6274889;22;20007;-76
2021/07/10 04:50:36;;;;;;;6.40;5.80;;;;;;;;;;6275137;22;20502;-76
2021/07/10 04:53:03;;;;;;;7.22;5.47;;;;;;;;;;6275021;22;20000;-76
2021/07/10 04:55:29;;;;;;;7.32;6.10;;;;;;;;;;6275145;22;20126;-76
2021/07/10 04:57:55;;;;;;;9.02;5.90;;;;;;;;;;6275132;22;20011;-77
2021/07/10 05:00:23;;;;;;;6.18;5.57;;;;;;;;;;6275019;22;20067;-76
2021/07/10 05:02:49;;;;;;;9.40;5.95;;;;;;;;;;6274833;22;20430;-76
2021/07/10 05:05:15;;;;;;;27.17;21.08;;;;;;;;;;6274874;22;20477;-76
2021/07/10 05:07:41;;;;;;;6.03;5.53;;;;;;;;;;6275873;22;20059;-76
2021/07/10 05:10:08;;;;;;;6.20;5.60;;;;;;;;;;6277115;22;20000;-77
2021/07/10 05:12:34;;;;;;;9.07;7.63;;;;;;;;;;6277271;22;20069;-77
2021/07/10 05:15:00;;;;;;;5.70;4.70;;;;;;;;;;6277542;22;20011;-77
2021/07/10 05:17:26;;;;;;;6.35;5.53;;;;;;;;;;6249951;22;19996;-76
2021/07/10 05:19:52;;;;;;;5.75;5.07;;;;;;;;;;6277229;22;20023;-76
2021/07/10 05:22:19;;;;;;;7.25;5.63;;;;;;;;;;6276937;22;20004;-76
2021/07/10 05:24:45;;;;;;;8.30;7.47;;;;;;;;;;6277101;22;20003;-76
2021/07/10 05:27:11;;;;;;;9.32;7.10;;;;;;;;;;6277045;22;19996;-76
2021/07/10 05:29:37;;;;;;;9.65;8.25;;;;;;;;;;6276065;22;20004;-79
2021/07/10 05:32:04;;;;;;;7.68;5.70;;;;;;;;;;6275847;22;20078;-78
2021/07/10 05:34:30;;;;;;;7.05;5.25;;;;;;;;;;6276378;22;19996;-79
2021/07/10 05:36:57;;;;;;;12.20;9.75;;;;;;;;;;6276360;22;20077;-82
2021/07/10 05:39:23;;;;;;;15.40;12.02;;;;;;;;;;6276589;22;20070;-76
2021/07/10 05:41:49;;;;;;;14.35;10.40;;;;;;;;;;6276878;22;20027;-78
2021/07/10 05:44:15;;;;;;;12.93;6.15;;;;;;;;;;6276217;22;19997;-80
2021/07/10 05:46:41;;;;;;;10.23;5.53;;;;;;;;;;6276056;22;20098;-80
2021/07/10 05:49:15;;;;;;;5.93;5.22;;;;;;;;;;6275212;22;20003;-76
2021/07/10 05:51:41;;;;;;;6.60;5.70;;;;;;;;;;6275206;22;20075;-78
2021/07/10 05:54:07;;;;;;;6.28;5.68;;;;;;;;;;6275392;22;20003;-74
2021/07/10 05:56:33;;;;;;;6.25;5.75;;;;;;;;;;6274980;22;20000;-79
2021/07/10 05:58:59;;;;;;;6.93;6.22;;;;;;;;;;6275151;22;20034;-79
2021/07/10 06:01:25;;;;;;;7.05;6.35;;;;;;;;;;6274822;22;20003;-79
2021/07/10 06:03:51;;;;;;;9.00;6.70;;;;;;;;;;6275218;22;19996;-74
2021/07/10 06:06:17;;;;;;;7.88;6.13;;;;;;;;;;6275166;22;19995;-76
2021/07/10 06:08:43;;;;;;;6.13;5.57;;;;;;;;;;6275061;22;19996;-78
2021/07/10 06:11:10;;;;;;;7.25;6.43;;;;;;;;;;6275214;22;20031;-77
2021/07/10 06:13:36;;;;;;;6.63;5.57;;;;;;;;;;6275008;22;20083;-76
2021/07/10 06:16:02;;;;;;;7.50;5.90;;;;;;;;;;6275197;22;20378;-79
2021/07/10 06:18:28;;;;;;;6.57;5.88;;;;;;;;;;6274507;22;20046;-74
2021/07/10 06:20:54;;;;;;;6.43;5.82;;;;;;;;;;6247895;22;20012;-76
2021/07/10 06:23:21;;;;;;;6.90;5.35;;;;;;;;;;6274937;22;20039;-77
2021/07/10 06:25:47;;;;;;;6.53;6.03;;;;;;;;;;6275036;22;20006;-81
2021/07/10 06:28:13;;;;;;;13.25;6.30;;;;;;;;;;6275140;22;19999;-76
2021/07/10 06:30:39;;;;;;;6.65;6.05;;;;;;;;;;6274660;22;20018;-78
2021/07/10 06:33:06;;;;;;;10.05;5.90;;;;;;;;;;6274833;22;20012;-76
2021/07/10 06:35:32;;;;;;;6.32;5.45;;;;;;;;;;6274758;22;20004;-76
2021/07/10 06:37:58;;;;;;;6.95;6.25;;;;;;;;;;6274713;22;20018;-75
2021/07/10 06:40:26;;;;;;;7.22;6.43;;;;;;;;;;6245902;22;20011;-77
2021/07/10 06:42:52;;;;;;;6.50;5.72;;;;;;;;;;6275007;22;20004;-74
2021/07/10 06:45:19;;;;;;;7.78;6.68;;;;;;;;;;6274872;22;19996;-76
2021/07/10 06:47:45;;;;;;;9.00;6.10;;;;;;;;;;6275136;22;20010;-77
2021/07/10 06:50:13;;;;;;;6.65;6.00;;;;;;;;;;6274766;22;20007;-75
2021/07/10 06:52:39;;;;;;;5.47;4.97;;;;;;;;;;6274630;22;20000;-77
2021/07/10 06:55:06;;;;;;;7.65;6.50;;;;;;;;;;6247916;22;20075;-76
2021/07/10 06:57:32;;;;;;;7.72;5.60;;;;;;;;;;6274956;22;20030;-77
2021/07/10 06:59:59;;;;;;;7.13;6.45;;;;;;;;;;6274472;22;20031;-75
2021/07/10 07:02:25;;;;;;;6.10;5.40;;;;;;;;;;6275334;22;20004;-75
2021/07/10 07:04:51;;;;;;;9.00;6.90;;;;;;;;;;6274566;22;20000;-77
2021/07/10 07:07:17;;;;;;;5.95;5.43;;;;;;;;;;6274742;22;20000;-77
2021/07/10 07:09:43;;;;;;;5.95;5.22;;;;;;;;;;6275564;22;19999;-75
2021/07/10 07:12:09;;;;;;;7.28;5.90;;;;;;;;;;6274637;22;20018;-76
2021/07/10 07:14:36;;;;;;;6.00;5.18;;;;;;;;;;6274326;22;20021;-76
2021/07/10 07:17:03;;;;;;;8.38;4.90;;;;;;;;;;6274629;22;20327;-79
2021/07/10 07:19:30;;;;;;;8.85;5.25;;;;;;;;;;6274960;22;20074;-76
2021/07/10 07:21:57;;;;;;;5.22;4.72;;;;;;;;;;6274356;22;19999;-77
2021/07/10 07:24:23;;;;;;;5.15;4.65;;;;;;;;;;6274778;22;20058;-79
2021/07/10 07:26:49;;;;;;;6.55;5.03;;;;;;;;;;6274647;22;20002;-78
2021/07/10 07:29:15;;;;;;;6.82;5.13;;;;;;;;;;6273866;22;20360;-78
2021/07/10 07:31:42;;;;;;;5.65;4.95;;;;;;;;;;6274745;22;20053;-79
2021/07/10 07:34:08;;;;;;;5.47;4.88;;;;;;;;;;6274629;22;20332;-80
2021/07/10 07:36:35;;;;;;;11.25;5.32;;;;;;;;;;6274293;22;20376;-77
2021/07/10 07:39:02;;;;;;;6.30;5.13;;;;;;;;;;6274624;22;20430;-75
2021/07/10 07:41:28;;;;;;;6.57;4.95;;;;;;;;;;6274619;22;20003;-76
2021/07/10 07:43:54;;;;;;;5.93;4.65;;;;;;;;;;6274067;22;20443;-79
2021/07/10 07:46:20;;;;;;;5.32;4.82;;;;;;;;;;6274609;22;20066;-78
2021/07/10 07:48:46;;;;;;;9.60;5.47;;;;;;;;;;6274733;22;20494;-77
2021/07/10 07:51:16;;;;;;;6.03;5.55;;;;;;;;;;6274169;22;20006;-78
2021/07/10 07:53:45;;;;;;;5.28;4.80;;;;;;;;;;6274797;22;20004;-78
2021/07/10 07:56:12;;;;;;;4.78;4.30;;;;;;;;;;6274657;22;20450;-79
2021/07/10 07:58:39;;;;;;;7.47;5.40;;;;;;;;;;6274209;22;20003;-78
2021/07/10 08:01:06;;;;;;;8.25;4.97;;;;;;;;;;6274530;22;20004;-79
2021/07/10 08:03:32;;;;;;;6.15;4.68;;;;;;;;;;6274809;22;20074;-76
2021/07/10 08:05:58;;;;;;;5.47;4.95;;;;;;;;;;6274289;22;19996;-78
2021/07/10 08:08:25;;;;;;;5.90;5.20;;;;;;;;;;6274340;22;20010;-78
2021/07/10 08:10:51;;;;;;;5.90;5.40;;;;;;;;;;6274637;22;20023;-76
2021/07/10 08:13:17;;;;;;;5.35;4.85;;;;;;;;;;6246553;22;20004;-78
2021/07/10 08:15:43;;;;;;;5.22;4.80;;;;;;;;;;6275096;22;20042;-77
2021/07/10 08:18:09;;;;;;;5.80;4.55;;;;;;;;;;6247660;22;20030;-78
2021/07/10 08:20:36;;;;;;;5.15;4.65;;;;;;;;;;6274189;22;20680;-77
2021/07/10 08:23:02;;;;;;;5.88;5.22;;;;;;;;;;6275150;22;20050;-78
2021/07/10 08:25:28;;;;;;;15.80;6.57;;;;;;;;;;6274613;22;20008;-78
2021/07/10 08:27:54;;;;;;;5.30;4.88;;;;;;;;;;6246764;22;20004;-77
2021/07/10 08:30:21;;;;;;;5.85;5.15;;;;;;;;;;6274216;22;20334;-78
2021/07/10 08:32:47;;;;;;;5.60;5.10;;;;;;;;;;6274399;22;20490;-78
2021/07/10 08:35:15;;;;;;;5.30;4.80;;;;;;;;;;6274096;22;20010;-76
2021/07/10 08:37:41;;;;;;;5.82;5.07;;;;;;;;;;6274039;22;20074;-76
2021/07/10 08:40:09;;;;;;;5.15;4.75;;;;;;;;;;6274139;22;20370;-75
2021/07/10 08:42:35;;;;;;;5.68;5.18;;;;;;;;;;6275722;22;20062;-76
2021/07/10 08:45:04;;;;;;;6.22;5.57;;;;;;;;;;6249127;22;20007;-77
2021/07/10 08:47:33;;;;;;;6.47;5.80;;;;;;;;;;6276166;22;20015;-76
2021/07/10 08:50:00;;;;;;;6.05;5.45;;;;;;;;;;6276258;22;20479;-76
2021/07/10 08:52:26;;;;;;;5.88;4.90;;;;;;;;;;6276258;22;19996;-78
2021/07/10 08:54:52;;;;;;;5.90;4.82;;;;;;;;;;6276164;22;20007;-78
2021/07/10 08:57:20;;;;;;;5.32;4.88;;;;;;;;;;6275817;22;20038;-78
2021/07/10 08:59:46;;;;;;;6.15;5.53;;;;;;;;;;6276169;22;20004;-77
2021/07/10 09:02:12;;;;;;;5.72;5.13;;;;;;;;;;6276348;22;20004;-77
2021/07/10 09:04:39;;;;;;;7.00;5.80;;;;;;;;;;6275756;22;20038;-76
2021/07/10 09:07:06;;;;;;;6.63;5.97;;;;;;;;;;6276349;22;20073;-79
2021/07/10 09:09:51;;;;;;;6.85;6.20;;;;;;;;;;6275734;22;20003;-78
2021/07/10 09:12:28;;;;;;;6.85;6.25;;;;;;;;;;6275875;22;20485;-77
2021/07/10 09:14:54;;;;;;;5.95;5.45;;;;;;;;;;6276191;22;20008;-78
2021/07/10 09:17:23;;;;;;;6.20;5.70;;;;;;;;;;6275956;22;20431;-76
2021/07/10 09:19:50;;;;;;;8.18;6.50;;;;;;;;;;6276073;22;20078;-76
2021/07/10 09:22:30;;;;;;;6.25;5.70;;;;;;;;;;6276172;22;20415;-75
2021/07/10 09:24:57;;;;;;;7.20;6.60;;;;;;;;;;6276085;22;20004;-75
2021/07/10 09:27:23;;;;;;;7.38;6.78;;;;;;;;;;6275374;22;20003;-76
2021/07/10 09:29:52;;;;;;;7.00;6.40;;;;;;;;;;6275365;22;20011;-76
2021/07/10 09:32:19;;;;;;;6.97;6.38;;;;;;;;;;6276002;22;20450;-77
2021/07/10 09:34:48;;;;;;;8.20;7.40;;;;;;;;;;6248170;22;20374;-75
2021/07/10 09:37:18;;;;;;;6.82;6.07;;;;;;;;;;6275860;22;20035;-76
2021/07/10 09:39:54;;;;;;;6.88;6.38;;;;;;;;;;6275238;22;20018;-76
2021/07/10 09:42:23;;;;;;;5.88;5.38;;;;;;;;;;6275614;22;20074;-76
2021/07/10 09:44:51;;;;;;;6.95;6.25;;;;;;;;;;6248045;22;20426;-76
2021/07/10 09:47:24;;;;;;;6.82;6.07;;;;;;;;;;6276048;22;20000;-77
2021/07/10 09:49:50;;;;;;;6.70;6.10;;;;;;;;;;6275390;22;20004;-76
2021/07/10 09:52:18;;;;;;;6.32;5.63;;;;;;;;;;6275550;22;20004;-77
2021/07/10 09:54:48;;;;;;;6.10;5.60;;;;;;;;;;6275639;22;20008;-76
2021/07/10 09:57:19;;;;;;;6.80;6.20;;;;;;;;;;6275451;22;20374;-77
2021/07/10 09:59:53;;;;;;;11.88;7.40;;;;;;;;;;6275410;22;20004;-77
2021/07/10 10:02:19;;;;;;;;;;;;;;;;;;6276382;22;20027;-76
2021/07/10 10:04:45;;;;;;;5.90;5.40;;;;;;;;;;6275023;22;20323;-77
2021/07/10 10:07:13;;;;;;;6.82;6.20;;;;;;;;;;6275846;22;20002;-76
2021/07/10 10:09:40;;;;;;;5.95;5.43;;;;;;;;;;6275491;22;20482;-76
2021/07/10 10:12:13;;;;;;;6.93;5.90;;;;;;;;;;6275703;22;20363;-76
2021/07/10 10:14:42;;;;;;;8.32;6.43;;;;;;;;;;6275464;22;20012;-77
2021/07/10 10:17:08;;;;;;;6.30;5.60;;;;;;;;;;6248407;22;20088;-76
2021/07/10 10:19:35;;;;;;;7.00;5.18;;;;;;;;;;6275036;22;19996;-75
2021/07/10 10:22:02;;;;;;;6.20;5.15;;;;;;;;;;6275207;22;20011;-78
2021/07/10 10:24:29;;;;;;;7.18;5.72;;;;;;;;;;6275168;22;20008;-75
2021/07/10 10:26:57;;;;;;;5.82;5.22;;;;;;;;;;6274810;22;20070;-76
2021/07/10 10:29:24;;;;;;;8.90;6.60;;;;;;;;;;6248423;22;20386;-76
2021/07/10 10:31:50;;;;;;;5.95;5.45;;;;;;;;;;6275305;22;20339;-76
2021/07/10 10:34:17;;;;;;;6.70;6.10;;;;;;;;;;6275038;22;20000;-77
2021/07/10 10:36:44;;;;;;;8.40;6.72;;;;;;;;;;6274916;22;20003;-77
2021/07/10 10:39:12;;;;;;;6.03;5.45;;;;;;;;;;6275236;22;20046;-76
2021/07/10 10:41:39;;;;;;;12.40;6.40;;;;;;;;;;6274873;22;20010;-78
2021/07/10 10:44:06;;;;;;;6.57;6.05;;;;;;;;;;6274910;22;20008;-77
2021/07/10 10:46:42;;;;;;;8.25;5.85;;;;;;;;;;6275403;22;20006;-76
2021/07/10 10:49:28;;;;;;;7.15;6.55;;;;;;;;;;6274967;22;19996;-76
2021/07/10 10:51:55;;;;;;;7.50;6.35;;;;;;;;;;6276276;22;20003;-78
2021/07/10 10:54:22;;;;;;;6.32;5.72;;;;;;;;;;6277002;22;20423;-78
2021/07/10 10:56:48;;;;;;;6.85;6.07;;;;;;;;;;6277368;22;20011;-78
2021/07/10 10:59:33;;;;;;;7.03;6.32;;;;;;;;;;6275828;22;20503;-80
2021/07/10 11:01:59;;;;;;;18.27;16.55;;;;;;;;;;6275782;22;20463;-78
2021/07/10 11:04:44;;;;;;;6.85;6.10;;;;;;;;;;6276489;22;20071;-80
2021/07/10 11:07:22;;;;;;;6.43;5.82;;;;;;;;;;6276412;22;19996;-80
2021/07/10 11:10:06;;;;;;;6.30;5.70;;;;;;;;;;6275762;22;19995;-76
2021/07/10 11:12:48;;;;;;;7.57;6.38;;;;;;;;;;6276052;22;20080;-77
2021/07/10 11:15:27;;;;;;;6.57;5.78;;;;;;;;;;6275612;22;20454;-77
2021/07/10 11:17:54;;;;;;;6.57;5.25;;;;;;;;;;6248207;22;20057;-77
2021/07/10 11:20:41;;;;;;;6.80;6.20;;;;;;;;;;6276071;22;20437;-77
2021/07/10 11:23:08;;;;;;;5.20;4.47;;;;;;;;;;6276405;22;20003;-79
2021/07/10 11:25:50;;;;;;;6.97;6.20;;;;;;;;;;6276133;22;20102;-78
2021/07/10 11:28:16;;;;;;;8.13;7.38;;;;;;;;;;6276349;22;20003;-75
2021/07/10 11:30:50;;;;;;;6.47;5.95;;;;;;;;;;6276288;22;20000;-78
2021/07/10 11:33:16;;;;;;;7.32;6.63;;;;;;;;;;6275857;22;19999;-76
2021/07/10 11:35:46;;;;;;;6.25;5.55;;;;;;;;;;6275720;22;20439;-77
2021/07/10 11:38:41;;;;;;;6.88;6.28;;;;;;;;;;6275886;22;20123;-77
2021/07/10 11:41:07;;;;;;;6.15;5.70;;;;;;;;;;6250159;22;20008;-77
2021/07/10 11:43:40;;;;;;;6.00;5.55;;;;;;;;;;6276227;22;20050;-77
2021/07/10 11:46:07;;;;;;;7.47;5.80;;;;;;;;;;6275652;22;20041;-76
2021/07/10 11:48:33;;;;;;;6.70;6.20;;;;;;;;;;6275871;22;20071;-76
2021/07/10 11:51:01;;;;;;;7.00;6.30;;;;;;;;;;6276404;22;20165;-77
2021/07/10 11:53:27;;;;;;;6.70;5.85;;;;;;;;;;6275927;22;20331;-77
2021/07/10 11:55:54;;;;;;;6.70;6.18;;;;;;;;;;6276002;22;20004;-77
2021/07/10 11:58:20;;;;;;;8.25;6.45;;;;;;;;;;6275638;22;20039;-77
2021/07/10 12:00:47;;;;;;;7.05;6.35;;;;;;;;;;6275757;22;20003;-75
2021/07/10 12:03:17;;;;;;;6.50;5.78;;;;;;;;;;6274896;22;20009;-75
2021/07/10 12:05:44;;;;;;;8.98;6.80;;;;;;;;;;6276308;22;20014;-76
2021/07/10 12:08:10;;;;;;;6.47;5.93;;;;;;;;;;6275421;22;20451;-77
2021/07/10 12:10:38;;;;;;;6.85;6.25;;;;;;;;;;6275641;22;20008;-76
2021/07/10 12:13:09;;;;;;;8.82;6.97;;;;;;;;;;6275580;22;20079;-77
2021/07/10 12:15:38;;;;;;;6.03;5.47;;;;;;;;;;6275414;22;20027;-76
2021/07/10 12:18:05;;;;;;;6.90;6.13;;;;;;;;;;6275270;22;20065;-77
2021/07/10 12:20:35;;;;;;;9.77;6.05;;;;;;;;;;6275509;22;20010;-78
2021/07/10 12:23:03;;;;;;;8.02;6.63;;;;;;;;;;6276208;22;20050;-77
2021/07/10 12:25:31;;;;;;;7.10;6.47;;;;;;;;;;6275412;22;20004;-76
2021/07/10 12:27:58;;;;;;;5.75;5.20;;;;;;;;;;6275336;22;20026;-78
2021/07/10 12:30:43;;;;;;;6.30;5.70;;;;;;;;;;6275341;22;20000;-77
2021/07/10 12:33:27;;;;;;;7.30;5.43;;;;;;;;;;6275045;22;20018;-77
2021/07/10 12:36:20;;;;;;;11.68;6.88;;;;;;;;;;6275877;22;20505;-76
2021/07/10 12:39:01;;;;;;;6.65;6.05;;;;;;;;;;6269832;22;20023;-77
2021/07/10 12:41:30;;;;;;;7.32;6.50;;;;;;;;;;6275559;22;20007;-79
2021/07/10 12:44:15;;;;;;;15.88;7.68;;;;;;;;;;6275686;22;20076;-77
2021/07/10 12:47:00;;;;;;;33.95;10.52;;;;;;;;;;6275794;22;20432;-78
2021/07/10 12:49:46;;;;;;;25.95;9.50;;;;;;;;;;6275479;22;20331;-81
2021/07/10 12:52:26;;;;;;;17.27;8.05;;;;;;;;;;6255543;22;20011;-78
2021/07/10 12:54:59;;;;;;;39.90;9.15;;;;;;;;;;6275691;22;20007;-78
2021/07/10 12:57:30;;;;;;;39.88;9.02;;;;;;;;;;6275945;22;20010;-79
2021/07/10 13:00:02;;;;;;;21.30;6.93;;;;;;;;;;6276135;22;20075;-78
2021/07/10 13:02:47;;;;;;;14.82;7.25;;;;;;;;;;6275552;22;20443;-78
2021/07/10 13:05:17;;;;;;;10.43;6.40;;;;;;;;;;6275689;22;20000;-79
2021/07/10 13:07:44;;;;;;;10.30;6.57;;;;;;;;;;6275971;22;20423;-78
2021/07/10 13:10:24;;;;;;;8.43;6.20;;;;;;;;;;6275847;22;20007;-78
2021/07/10 13:12:52;;;;;;;17.08;7.90;;;;;;;;;;6275503;22;20086;-78
2021/07/10 13:15:19;;;;;;;8.15;7.35;;;;;;;;;;6275160;22;20011;-80
2021/07/10 13:18:04;;;;;;;8.45;7.65;;;;;;;;;;6275474;22;20050;-77
2021/07/10 13:20:31;;;;;;;9.48;7.35;;;;;;;;;;6275530;22;20003;-76
2021/07/10 13:22:57;;;;;;;9.07;8.15;;;;;;;;;;6275612;22;20077;-76
2021/07/10 13:25:43;;;;;;;9.82;7.97;;;;;;;;;;6276683;22;20390;-81
2021/07/10 13:28:22;;;;;;;8.45;7.65;;;;;;;;;;6275845;22;20083;-79
2021/07/10 13:30:48;;;;;;;9.10;8.32;;;;;;;;;;6277462;22;19992;-79
2021/07/10 13:33:14;;;;;;;9.48;7.70;;;;;;;;;;6276925;22;20008;-77
2021/07/10 13:35:40;;;;;;;24.33;10.73;;;;;;;;;;6277208;22;20054;-77
2021/07/10 13:38:25;;;;;;;9.02;8.13;;;;;;;;;;6277001;22;20447;-78
2021/07/10 13:40:51;;;;;;;9.15;8.27;;;;;;;;;;6277216;22;20304;-79
2021/07/10 13:43:24;;;;;;;8.60;7.82;;;;;;;;;;6276831;22;20000;-78
2021/07/10 13:46:09;;;;;;;8.25;7.45;;;;;;;;;;6277057;22;20371;-78
2021/07/10 13:48:35;;;;;;;8.18;7.45;;;;;;;;;;6277120;22;20000;-78
2021/07/10 13:51:04;;;;;;;9.02;7.95;;;;;;;;;;6276781;22;19995;-75
2021/07/10 13:53:30;;;;;;;13.13;9.30;;;;;;;;;;6277043;22;20050;-82
2021/07/10 13:55:56;;;;;;;10.82;9.73;;;;;;;;;;6276916;22;20000;-75
2021/07/10 13:58:24;;;;;;;10.60;9.10;;;;;;;;;;6276903;22;20008;-78
2021/07/10 14:00:50;;;;;;;13.43;10.07;;;;;;;;;;6276814;22;20071;-78
2021/07/10 14:03:17;;;;;;;14.32;10.00;;;;;;;;;;6276986;22;20054;-79
2021/07/10 14:05:44;;;;;;;10.40;9.40;;;;;;;;;;6276835;22;20062;-80
2021/07/10 14:08:14;;;;;;;10.20;8.43;;;;;;;;;;6276963;22;20083;-76
2021/07/10 14:10:44;;;;;;;9.60;8.68;;;;;;;;;;6276655;22;20057;-79
2021/07/10 14:13:10;;;;;;;10.55;8.20;;;;;;;;;;6276738;22;20074;-77
2021/07/10 14:15:37;;;;;;;10.07;9.07;;;;;;;;;;6276657;22;20007;-77
2021/07/10 14:18:04;;;;;;;17.38;10.23;;;;;;;;;;6249466;22;20003;-79
2021/07/10 14:20:30;;;;;;;11.40;9.05;;;;;;;;;;6276987;22;20012;-79
2021/07/10 14:22:57;;;;;;;17.80;9.50;;;;;;;;;;6276854;22;20371;-75
2021/07/10 14:25:28;;;;;;;15.27;10.05;;;;;;;;;;6277119;22;20007;-77
2021/07/10 14:27:54;;;;;;;12.30;10.35;;;;;;;;;;6276401;22;19996;-78
2021/07/10 14:30:22;;;;;;;10.23;9.23;;;;;;;;;;6276649;22;20075;-78
2021/07/10 14:32:49;;;;;;;11.57;9.05;;;;;;;;;;6276412;22;20008;-78
2021/07/10 14:35:16;;;;;;;11.48;10.27;;;;;;;;;;6276921;22;20423;-75
2021/07/10 14:37:42;;;;;;;18.05;9.82;;;;;;;;;;6276830;22;20098;-77
2021/07/10 14:40:09;;;;;;;10.63;8.50;;;;;;;;;;6277038;22;20004;-76
2021/07/10 14:42:35;;;;;;;15.90;9.93;;;;;;;;;;6276443;22;20021;-77
2021/07/10 14:45:01;;;;;;;17.75;9.93;;;;;;;;;;6276352;22;20004;-78
2021/07/10 14:47:27;;;;;;;9.70;8.45;;;;;;;;;;6276749;22;20016;-79